sensor_id;sensor_type;location;lat;lon;timestamp;pressure;altitude;pressure_sealevel;temperature;humidity
23363;BME280;11853;48.080;11.960;2024-03-02T00:00:19;93794.75;;;7.35;100.00
23363;BME280;11853;48.080;11.960;2024-03-02T00:02:48;93792.09;;;7.35;100.00
23363;BME280;11853;48.080;11.960;2024-03-02T00:05:18;93785.84;;;7.36;100.00
23363;BME280;11853;48.080;11.960;2024-03-02T00:07:46;93781.72;;;7.34;100.00
23363;BME280;11853;48.080;11.960;2024-03-02T00:10:16;93772.50;;;7.30;100.00
23363;BME280;11853;48.080;11.960;2024-03-02T00:12:47;93781.88;;;7.32;100.00
23363;BME280;11853;48.080;11.960;2024-03-02T00:18:06;93785.16;;;7.26;100.00
23363;BME280;11853;48.080;11.960;2024-03-02T00:20:31;93779.88;;;7.26;100.00
23363;BME280;11853;48.080;11.960;2024-03-02T00:23:03;93779.88;;;7.26;100.00
23363;BME280;11853;48.080;11.960;2024-03-02T00:25:48;93771.00;;;7.27;100.00
23363;BME280;11853;48.080;11.960;2024-03-02T00:28:20;93780.69;;;7.27;100.00
23363;BME280;11853;48.080;11.960;2024-03-02T00:33:20;93779.84;;;7.18;100.00
23363;BME280;11853;48.080;11.960;2024-03-02T00:35:46;93778.50;;;7.14;100.00
23363;BME280;11853;48.080;11.960;2024-03-02T00:38:12;93775.88;;;7.14;100.00
23363;BME280;11853;48.080;11.960;2024-03-02T00:40:43;93776.03;;;7.12;100.00
23363;BME280;11853;48.080;11.960;2024-03-02T00:43:47;93775.69;;;7.07;100.00
23363;BME280;11853;48.080;11.960;2024-03-02T00:46:16;93772.53;;;7.04;100.00
23363;BME280;11853;48.080;11.960;2024-03-02T00:48:50;93766.28;;;7.05;100.00
23363;BME280;11853;48.080;11.960;2024-03-02T00:51:16;93763.44;;;6.98;100.00
23363;BME280;11853;48.080;11.960;2024-03-02T00:53:42;93756.28;;;6.82;100.00
23363;BME280;11853;48.080;11.960;2024-03-02T00:56:09;93760.38;;;6.76;100.00
23363;BME280;11853;48.080;11.960;2024-03-02T00:58:36;93757.44;;;6.80;100.00
23363;BME280;11853;48.080;11.960;2024-03-02T01:01:02;93761.56;;;6.82;100.00
23363;BME280;11853;48.080;11.960;2024-03-02T01:03:27;93762.38;;;6.83;100.00
23363;BME280;11853;48.080;11.960;2024-03-02T01:05:53;93758.59;;;6.85;100.00
23363;BME280;11853;48.080;11.960;2024-03-02T01:08:18;93750.06;;;6.91;100.00
23363;BME280;11853;48.080;11.960;2024-03-02T01:10:44;93751.22;;;6.89;100.00
23363;BME280;11853;48.080;11.960;2024-03-02T01:13:10;93743.28;;;6.89;100.00
23363;BME280;11853;48.080;11.960;2024-03-02T01:15:36;93746.34;;;6.68;100.00
23363;BME280;11853;48.080;11.960;2024-03-02T01:18:03;93736.44;;;6.62;100.00
23363;BME280;11853;48.080;11.960;2024-03-02T01:20:28;93729.81;;;6.58;100.00
23363;BME280;11853;48.080;11.960;2024-03-02T01:22:54;93721.56;;;6.61;100.00
23363;BME280;11853;48.080;11.960;2024-03-02T01:25:20;93725.97;;;6.52;100.00
23363;BME280;11853;48.080;11.960;2024-03-02T01:27:46;93723.97;;;6.46;100.00
23363;BME280;11853;48.080;11.960;2024-03-02T01:30:11;93720.38;;;6.47;100.00
23363;BME280;11853;48.080;11.960;2024-03-02T01:32:40;93726.78;;;6.44;100.00
23363;BME280;11853;48.080;11.960;2024-03-02T01:35:06;93724.59;;;6.40;100.00
23363;BME280;11853;48.080;11.960;2024-03-02T01:37:32;93721.16;;;6.39;100.00
23363;BME280;11853;48.080;11.960;2024-03-02T01:39:58;93720.16;;;6.40;100.00
23363;BME280;11853;48.080;11.960;2024-03-02T01:42:24;93712.94;;;6.42;100.00
23363;BME280;11853;48.080;11.960;2024-03-02T01:44:50;93721.81;;;6.41;100.00
23363;BME280;11853;48.080;11.960;2024-03-02T01:47:16;93724.16;;;6.44;100.00
23363;BME280;11853;48.080;11.960;2024-03-02T01:49:41;93727.44;;;6.46;100.00
23363;BME280;11853;48.080;11.960;2024-03-02T01:52:07;93728.47;;;6.53;100.00
23363;BME280;11853;48.080;11.960;2024-03-02T01:54:33;93736.56;;;6.60;100.00
23363;BME280;11853;48.080;11.960;2024-03-02T01:56:59;93728.53;;;6.62;100.00
23363;BME280;11853;48.080;11.960;2024-03-02T01:59:25;93735.13;;;6.66;100.00
23363;BME280;11853;48.080;11.960;2024-03-02T02:01:51;93729.03;;;6.65;100.00
23363;BME280;11853;48.080;11.960;2024-03-02T02:04:16;93726.53;;;6.64;100.00
23363;BME280;11853;48.080;11.960;2024-03-02T02:06:44;93718.63;;;6.64;100.00
23363;BME280;11853;48.080;11.960;2024-03-02T02:09:09;93724.75;;;6.64;100.00
23363;BME280;11853;48.080;11.960;2024-03-02T02:11:35;93722.31;;;6.71;100.00
23363;BME280;11853;48.080;11.960;2024-03-02T02:14:01;93719.81;;;6.69;100.00
23363;BME280;11853;48.080;11.960;2024-03-02T02:16:26;93726.25;;;6.75;100.00
23363;BME280;11853;48.080;11.960;2024-03-02T02:18:52;93719.81;;;6.69;100.00
23363;BME280;11853;48.080;11.960;2024-03-02T02:21:22;93723.94;;;6.72;100.00
23363;BME280;11853;48.080;11.960;2024-03-02T02:23:48;93722.31;;;6.71;100.00
23363;BME280;11853;48.080;11.960;2024-03-02T02:26:13;93716.66;;;6.66;100.00
23363;BME280;11853;48.080;11.960;2024-03-02T02:28:39;93711.41;;;6.66;100.00
23363;BME280;11853;48.080;11.960;2024-03-02T02:31:15;93708.75;;;6.66;100.00
23363;BME280;11853;48.080;11.960;2024-03-02T02:33:41;93699.03;;;6.66;100.00
23363;BME280;11853;48.080;11.960;2024-03-02T02:36:07;93701.84;;;6.65;100.00
23363;BME280;11853;48.080;11.960;2024-03-02T02:38:35;93697.53;;;6.56;100.00
23363;BME280;11853;48.080;11.960;2024-03-02T02:41:02;93697.25;;;6.41;100.00
23363;BME280;11853;48.080;11.960;2024-03-02T02:43:28;93696.94;;;6.36;100.00
23363;BME280;11853;48.080;11.960;2024-03-02T02:45:54;93693.63;;;6.34;100.00
23363;BME280;11853;48.080;11.960;2024-03-02T02:48:19;93703.97;;;6.35;100.00
23363;BME280;11853;48.080;11.960;2024-03-02T02:50:45;93698.56;;;6.37;100.00
23363;BME280;11853;48.080;11.960;2024-03-02T02:53:11;93702.84;;;6.38;100.00
23363;BME280;11853;48.080;11.960;2024-03-02T02:55:36;93689.69;;;6.38;100.00
23363;BME280;11853;48.080;11.960;2024-03-02T02:58:06;93693.94;;;6.30;100.00
23363;BME280;11853;48.080;11.960;2024-03-02T03:00:32;93695.75;;;6.30;100.00
23363;BME280;11853;48.080;11.960;2024-03-02T03:02:57;93688.63;;;6.22;100.00
23363;BME280;11853;48.080;11.960;2024-03-02T03:05:23;93687.31;;;6.26;100.00
23363;BME280;11853;48.080;11.960;2024-03-02T03:07:49;93685.16;;;6.22;100.00
23363;BME280;11853;48.080;11.960;2024-03-02T03:10:16;93682.09;;;6.08;100.00
23363;BME280;11853;48.080;11.960;2024-03-02T03:12:42;93692.94;;;6.05;100.00
23363;BME280;11853;48.080;11.960;2024-03-02T03:15:09;93685.56;;;6.09;100.00
23363;BME280;11853;48.080;11.960;2024-03-02T03:17:35;93685.88;;;6.06;100.00
23363;BME280;11853;48.080;11.960;2024-03-02T03:20:02;93683.72;;;6.01;100.00
23363;BME280;11853;48.080;11.960;2024-03-02T03:22:30;93676.13;;;5.98;100.00
23363;BME280;11853;48.080;11.960;2024-03-02T03:24:56;93678.28;;;6.03;100.00
23363;BME280;11853;48.080;11.960;2024-03-02T03:27:22;93674.00;;;6.02;100.00
23363;BME280;11853;48.080;11.960;2024-03-02T03:29:48;93686.66;;;5.98;100.00
23363;BME280;11853;48.080;11.960;2024-03-02T03:32:14;93684.59;;;5.92;100.00
23363;BME280;11853;48.080;11.960;2024-03-02T03:34:39;93685.19;;;5.86;100.00
23363;BME280;11853;48.080;11.960;2024-03-02T03:37:05;93691.56;;;5.93;100.00
23363;BME280;11853;48.080;11.960;2024-03-02T03:39:31;93691.56;;;5.93;100.00
23363;BME280;11853;48.080;11.960;2024-03-02T03:41:57;93687.94;;;5.94;100.00
23363;BME280;11853;48.080;11.960;2024-03-02T03:44:22;93689.94;;;6.00;100.00
23363;BME280;11853;48.080;11.960;2024-03-02T03:46:48;93694.91;;;6.03;100.00
23363;BME280;11853;48.080;11.960;2024-03-02T03:49:13;93695.06;;;6.02;100.00
23363;BME280;11853;48.080;11.960;2024-03-02T03:51:39;93691.50;;;6.11;100.00
23363;BME280;11853;48.080;11.960;2024-03-02T03:54:05;93691.38;;;6.21;100.00
23363;BME280;11853;48.080;11.960;2024-03-02T03:56:30;93701.31;;;6.27;100.00
23363;BME280;11853;48.080;11.960;2024-03-02T03:58:56;93700.03;;;6.31;100.00
23363;BME280;11853;48.080;11.960;2024-03-02T04:01:21;93704.97;;;6.34;100.00
23363;BME280;11853;48.080;11.960;2024-03-02T04:03:48;93710.75;;;6.38;100.00
23363;BME280;11853;48.080;11.960;2024-03-02T04:06:14;93709.63;;;6.40;100.00
23363;BME280;11853;48.080;11.960;2024-03-02T04:08:47;93715.56;;;6.42;100.00
23363;BME280;11853;48.080;11.960;2024-03-02T04:11:13;93714.88;;;6.40;100.00
23363;BME280;11853;48.080;11.960;2024-03-02T04:13:39;93718.50;;;6.39;100.00
23363;BME280;11853;48.080;11.960;2024-03-02T04:16:04;93708.59;;;6.33;100.00
23363;BME280;11853;48.080;11.960;2024-03-02T04:18:30;93714.38;;;6.37;100.00
23363;BME280;11853;48.080;11.960;2024-03-02T04:20:57;93713.25;;;6.39;100.00
23363;BME280;11853;48.080;11.960;2024-03-02T04:23:25;93723.47;;;6.42;100.00
23363;BME280;11853;48.080;11.960;2024-03-02T04:25:50;93720.53;;;6.45;100.00
23363;BME280;11853;48.080;11.960;2024-03-02T04:28:16;93716.63;;;6.58;100.00
23363;BME280;11853;48.080;11.960;2024-03-02T04:30:42;93718.28;;;6.59;100.00
23363;BME280;11853;48.080;11.960;2024-03-02T04:33:07;93719.13;;;6.59;100.00
23363;BME280;11853;48.080;11.960;2024-03-02T04:35:36;93720.94;;;6.59;100.00
23363;BME280;11853;48.080;11.960;2024-03-02T04:38:01;93719.56;;;6.54;100.00
23363;BME280;11853;48.080;11.960;2024-03-02T04:40:27;93716.63;;;6.58;100.00
23363;BME280;11853;48.080;11.960;2024-03-02T04:42:52;93719.94;;;6.60;100.00
23363;BME280;11853;48.080;11.960;2024-03-02T04:45:18;93706.94;;;6.58;100.00
23363;BME280;11853;48.080;11.960;2024-03-02T04:47:44;93717.81;;;6.63;100.00
23363;BME280;11853;48.080;11.960;2024-03-02T04:50:09;93722.44;;;6.61;100.00
23363;BME280;11853;48.080;11.960;2024-03-02T04:52:36;93722.56;;;6.60;100.00
23363;BME280;11853;48.080;11.960;2024-03-02T04:55:02;93724.38;;;6.59;100.00
23363;BME280;11853;48.080;11.960;2024-03-02T04:57:43;93727.38;;;6.64;100.00
23363;BME280;11853;48.080;11.960;2024-03-02T05:00:09;93726.75;;;6.70;100.00
23363;BME280;11853;48.080;11.960;2024-03-02T05:02:35;93732.47;;;6.66;100.00
23363;BME280;11853;48.080;11.960;2024-03-02T05:05:01;93730.66;;;6.66;100.00
23363;BME280;11853;48.080;11.960;2024-03-02T05:07:27;93733.31;;;6.66;100.00
23363;BME280;11853;48.080;11.960;2024-03-02T05:09:53;93727.06;;;6.67;100.00
23363;BME280;11853;48.080;11.960;2024-03-02T05:12:19;93732.66;;;6.64;100.00
23363;BME280;11853;48.080;11.960;2024-03-02T05:15:03;93743.69;;;6.68;100.00
23363;BME280;11853;48.080;11.960;2024-03-02T05:17:29;93742.06;;;6.67;100.00
23363;BME280;11853;48.080;11.960;2024-03-02T05:19:54;93743.03;;;6.66;100.00
23363;BME280;11853;48.080;11.960;2024-03-02T05:22:20;93741.22;;;6.66;100.00
23363;BME280;11853;48.080;11.960;2024-03-02T05:24:45;93740.25;;;6.67;100.00
23363;BME280;11853;48.080;11.960;2024-03-02T05:27:11;93743.53;;;6.69;100.00
23363;BME280;11853;48.080;11.960;2024-03-02T05:29:37;93737.44;;;6.69;100.00
23363;BME280;11853;48.080;11.960;2024-03-02T05:32:02;93752.78;;;6.73;100.00
23363;BME280;11853;48.080;11.960;2024-03-02T05:34:28;93743.75;;;6.76;100.00
23363;BME280;11853;48.080;11.960;2024-03-02T05:36:54;93752.47;;;6.76;100.00
23363;BME280;11853;48.080;11.960;2024-03-02T05:39:20;93758.38;;;6.70;100.00
23363;BME280;11853;48.080;11.960;2024-03-02T05:41:45;93761.84;;;6.71;100.00
23363;BME280;11853;48.080;11.960;2024-03-02T05:44:11;93763.00;;;6.76;100.00
23363;BME280;11853;48.080;11.960;2024-03-02T05:46:37;93774.69;;;6.74;100.00
23363;BME280;11853;48.080;11.960;2024-03-02T05:49:03;93770.25;;;6.74;100.00
23363;BME280;11853;48.080;11.960;2024-03-02T05:51:29;93766.97;;;6.72;100.00
23363;BME280;11853;48.080;11.960;2024-03-02T05:53:54;93769.59;;;6.72;100.00
23363;BME280;11853;48.080;11.960;2024-03-02T05:56:20;93775.69;;;6.73;100.00
23363;BME280;11853;48.080;11.960;2024-03-02T05:58:45;93772.75;;;6.76;100.00
23363;BME280;11853;48.080;11.960;2024-03-02T06:01:29;93770.25;;;6.74;100.00
23363;BME280;11853;48.080;11.960;2024-03-02T06:03:56;93775.19;;;6.77;100.00
23363;BME280;11853;48.080;11.960;2024-03-02T06:06:22;93772.94;;;6.83;100.00
23363;BME280;11853;48.080;11.960;2024-03-02T06:08:48;93773.75;;;6.83;100.00
23363;BME280;11853;48.080;11.960;2024-03-02T06:11:13;93772.63;;;6.86;100.00
23363;BME280;11853;48.080;11.960;2024-03-02T06:13:39;93779.56;;;6.87;100.00
23363;BME280;11853;48.080;11.960;2024-03-02T06:16:05;93780.19;;;6.89;100.00
23363;BME280;11853;48.080;11.960;2024-03-02T06:18:31;93780.38;;;6.87;100.00
23363;BME280;11853;48.080;11.960;2024-03-02T06:20:56;93779.38;;;6.88;100.00
23363;BME280;11853;48.080;11.960;2024-03-02T06:23:22;93780.06;;;6.90;100.00
23363;BME280;11853;48.080;11.960;2024-03-02T06:25:47;93782.03;;;6.88;100.00
23363;BME280;11853;48.080;11.960;2024-03-02T06:28:13;93783.66;;;6.89;100.00
23363;BME280;11853;48.080;11.960;2024-03-02T06:30:41;93788.63;;;6.92;100.00
23363;BME280;11853;48.080;11.960;2024-03-02T06:33:07;93784.03;;;6.94;100.00
23363;BME280;11853;48.080;11.960;2024-03-02T06:35:33;93774.84;;;6.98;100.00
23363;BME280;11853;48.080;11.960;2024-03-02T06:38:00;93776.66;;;7.06;100.00
23363;BME280;11853;48.080;11.960;2024-03-02T06:40:26;93780.97;;;7.07;100.00
23363;BME280;11853;48.080;11.960;2024-03-02T06:42:51;93777.34;;;7.08;100.00
23363;BME280;11853;48.080;11.960;2024-03-02T06:45:17;93772.41;;;7.13;100.00
23363;BME280;11853;48.080;11.960;2024-03-02T06:47:42;93779.50;;;7.21;100.00
23363;BME280;11853;48.080;11.960;2024-03-02T06:50:08;93770.47;;;7.23;100.00
23363;BME280;11853;48.080;11.960;2024-03-02T06:52:35;93768.19;;;7.29;100.00
23363;BME280;11853;48.080;11.960;2024-03-02T06:55:00;93773.00;;;7.33;100.00
23363;BME280;11853;48.080;11.960;2024-03-02T06:57:26;93779.09;;;7.34;100.00
23363;BME280;11853;48.080;11.960;2024-03-02T06:59:52;93778.91;;;7.35;100.00
23363;BME280;11853;48.080;11.960;2024-03-02T07:02:20;93778.63;;;7.38;100.00
23363;BME280;11853;48.080;11.960;2024-03-02T07:04:46;93773.84;;;7.42;100.00
23363;BME280;11853;48.080;11.960;2024-03-02T07:07:12;93785.22;;;7.42;100.00
23363;BME280;11853;48.080;11.960;2024-03-02T07:09:38;93780.94;;;7.41;100.00
23363;BME280;11853;48.080;11.960;2024-03-02T07:12:04;93775.66;;;7.41;100.00
23363;BME280;11853;48.080;11.960;2024-03-02T07:14:29;93777.44;;;7.41;100.00
23363;BME280;11853;48.080;11.960;2024-03-02T07:17:13;93766.75;;;7.42;100.00
23363;BME280;11853;48.080;11.960;2024-03-02T07:19:39;93777.28;;;7.42;100.00
23363;BME280;11853;48.080;11.960;2024-03-02T07:22:08;93780.75;;;7.43;100.00
23363;BME280;11853;48.080;11.960;2024-03-02T07:24:44;93782.75;;;7.49;100.00
23363;BME280;11853;48.080;11.960;2024-03-02T07:27:11;93782.22;;;7.37;100.00
23363;BME280;11853;48.080;11.960;2024-03-02T07:29:38;93781.22;;;7.30;100.00
23363;BME280;11853;48.080;11.960;2024-03-02T07:32:04;93783.50;;;7.25;100.00
23363;BME280;11853;48.080;11.960;2024-03-02T07:34:30;93788.94;;;7.23;100.00
23363;BME280;11853;48.080;11.960;2024-03-02T07:36:56;93791.31;;;7.00;100.00
23363;BME280;11853;48.080;11.960;2024-03-02T07:39:22;93796.06;;;6.97;100.00
23363;BME280;11853;48.080;11.960;2024-03-02T07:41:48;93796.25;;;7.04;100.00
23363;BME280;11853;48.080;11.960;2024-03-02T07:44:14;93796.66;;;7.17;100.00
23363;BME280;11853;48.080;11.960;2024-03-02T07:46:43;93793.66;;;7.12;100.00
23363;BME280;11853;48.080;11.960;2024-03-02T07:49:09;93792.84;;;7.11;100.00
23363;BME280;11853;48.080;11.960;2024-03-02T07:51:35;93796.28;;;7.12;100.00
23363;BME280;11853;48.080;11.960;2024-03-02T07:54:01;93791.19;;;7.10;100.00
23363;BME280;11853;48.080;11.960;2024-03-02T07:56:27;93797.97;;;7.21;100.00
23363;BME280;11853;48.080;11.960;2024-03-02T07:58:54;93792.78;;;7.37;100.00
23363;BME280;11853;48.080;11.960;2024-03-02T08:01:20;93798.38;;;7.34;100.00
23363;BME280;11853;48.080;11.960;2024-03-02T08:03:46;93797.09;;;7.38;100.00
23363;BME280;11853;48.080;11.960;2024-03-02T08:06:18;93807.63;;;7.47;100.00
23363;BME280;11853;48.080;11.960;2024-03-02T08:09:05;93802.22;;;7.48;100.00
23363;BME280;11853;48.080;11.960;2024-03-02T08:11:35;93805.75;;;7.65;100.00
23363;BME280;11853;48.080;11.960;2024-03-02T08:14:01;93806.56;;;7.74;100.00
23363;BME280;11853;48.080;11.960;2024-03-02T08:16:28;93819.44;;;7.68;100.00
23363;BME280;11853;48.080;11.960;2024-03-02T08:18:54;93811.19;;;7.72;100.00
23363;BME280;11853;48.080;11.960;2024-03-02T08:21:23;93822.88;;;7.69;100.00
23363;BME280;11853;48.080;11.960;2024-03-02T08:23:49;93814.84;;;7.79;100.00
23363;BME280;11853;48.080;11.960;2024-03-02T08:26:14;93822.97;;;8.02;100.00
23363;BME280;11853;48.080;11.960;2024-03-02T08:28:40;93823.38;;;8.48;100.00
23363;BME280;11853;48.080;11.960;2024-03-02T08:31:07;93818.00;;;9.05;100.00
23363;BME280;11853;48.080;11.960;2024-03-02T08:33:33;93824.25;;;10.30;100.00
23363;BME280;11853;48.080;11.960;2024-03-02T08:35:59;93822.63;;;11.49;100.00
23363;BME280;11853;48.080;11.960;2024-03-02T08:38:30;93833.81;;;12.26;100.00
23363;BME280;11853;48.080;11.960;2024-03-02T08:40:56;93823.97;;;12.26;100.00
23363;BME280;11853;48.080;11.960;2024-03-02T08:43:22;93822.84;;;12.35;100.00
23363;BME280;11853;48.080;11.960;2024-03-02T08:45:48;93826.53;;;12.34;100.00
23363;BME280;11853;48.080;11.960;2024-03-02T08:48:14;93827.03;;;12.45;100.00
23363;BME280;11853;48.080;11.960;2024-03-02T08:50:39;93821.38;;;12.76;100.00
23363;BME280;11853;48.080;11.960;2024-03-02T08:53:05;93830.28;;;13.11;98.70
23363;BME280;11853;48.080;11.960;2024-03-02T08:55:31;93828.06;;;12.65;95.60
23363;BME280;11853;48.080;11.960;2024-03-02T08:57:57;93828.53;;;12.32;99.80
23363;BME280;11853;48.080;11.960;2024-03-02T09:00:23;93826.72;;;11.82;100.00
23363;BME280;11853;48.080;11.960;2024-03-02T09:02:49;93819.31;;;11.33;100.00
23363;BME280;11853;48.080;11.960;2024-03-02T09:05:15;93828.38;;;11.09;100.00
23363;BME280;11853;48.080;11.960;2024-03-02T09:07:40;93821.03;;;10.96;100.00
23363;BME280;11853;48.080;11.960;2024-03-02T09:10:07;93817.47;;;11.03;100.00
23363;BME280;11853;48.080;11.960;2024-03-02T09:12:33;93822.81;;;11.33;100.00
23363;BME280;11853;48.080;11.960;2024-03-02T09:15:02;93820.78;;;11.65;100.00
23363;BME280;11853;48.080;11.960;2024-03-02T09:17:34;93831.94;;;11.75;100.00
23363;BME280;11853;48.080;11.960;2024-03-02T09:20:00;93824.34;;;11.72;100.00
23363;BME280;11853;48.080;11.960;2024-03-02T09:22:25;93825.28;;;11.49;100.00
23363;BME280;11853;48.080;11.960;2024-03-02T09:24:51;93829.69;;;11.42;100.00
23363;BME280;11853;48.080;11.960;2024-03-02T09:27:17;93819.31;;;11.33;100.00
23363;BME280;11853;48.080;11.960;2024-03-02T09:29:42;93830.75;;;11.18;100.00
23363;BME280;11853;48.080;11.960;2024-03-02T09:32:12;93827.81;;;10.98;100.00
23363;BME280;11853;48.080;11.960;2024-03-02T09:34:38;93824.22;;;10.91;100.00
23363;BME280;11853;48.080;11.960;2024-03-02T09:37:04;93819.16;;;10.81;100.00
23363;BME280;11853;48.080;11.960;2024-03-02T09:39:30;93819.69;;;10.62;100.00
23363;BME280;11853;48.080;11.960;2024-03-02T09:41:56;93814.03;;;10.65;100.00
23363;BME280;11853;48.080;11.960;2024-03-02T09:44:23;93810.25;;;10.59;100.00
23363;BME280;11853;48.080;11.960;2024-03-02T09:46:51;93818.63;;;10.48;100.00
23363;BME280;11853;48.080;11.960;2024-03-02T09:49:16;93819.00;;;10.45;100.00
23363;BME280;11853;48.080;11.960;2024-03-02T09:51:47;93817.22;;;10.37;100.00
23363;BME280;11853;48.080;11.960;2024-03-02T09:54:15;93813.22;;;10.42;100.00
23363;BME280;11853;48.080;11.960;2024-03-02T09:56:41;93810.81;;;10.24;100.00
23363;BME280;11853;48.080;11.960;2024-03-02T09:59:07;93803.88;;;10.23;100.00
23363;BME280;11853;48.080;11.960;2024-03-02T10:01:33;93812.69;;;10.15;100.00
23363;BME280;11853;48.080;11.960;2024-03-02T10:03:59;93810.59;;;10.10;100.00
23363;BME280;11853;48.080;11.960;2024-03-02T10:06:26;93808.53;;;10.21;100.00
23363;BME280;11853;48.080;11.960;2024-03-02T10:08:53;93805.06;;;10.20;100.00
23363;BME280;11853;48.080;11.960;2024-03-02T10:11:34;93799.28;;;10.17;100.00
23363;BME280;11853;48.080;11.960;2024-03-02T10:14:12;93794.19;;;10.07;100.00
23363;BME280;11853;48.080;11.960;2024-03-02T10:16:40;93792.31;;;10.15;100.00
23363;BME280;11853;48.080;11.960;2024-03-02T10:19:19;93795.31;;;10.12;100.00
23363;BME280;11853;48.080;11.960;2024-03-02T10:21:54;93790.38;;;10.09;100.00
23363;BME280;11853;48.080;11.960;2024-03-02T10:24:21;93796.84;;;10.07;100.00
23363;BME280;11853;48.080;11.960;2024-03-02T10:26:48;93797.56;;;10.01;100.00
23363;BME280;11853;48.080;11.960;2024-03-02T10:29:14;93785.44;;;10.06;100.00
23363;BME280;11853;48.080;11.960;2024-03-02T10:31:41;93791.19;;;10.10;100.00
23363;BME280;11853;48.080;11.960;2024-03-02T10:34:08;93788.69;;;10.17;100.00
23363;BME280;11853;48.080;11.960;2024-03-02T10:36:35;93789.56;;;10.09;100.00
23363;BME280;11853;48.080;11.960;2024-03-02T10:39:05;93782.78;;;10.06;100.00
23363;BME280;11853;48.080;11.960;2024-03-02T10:41:36;93779.06;;;10.15;100.00
23363;BME280;11853;48.080;11.960;2024-03-02T10:44:03;93783.03;;;10.20;100.00
23363;BME280;11853;48.080;11.960;2024-03-02T10:46:31;93777.00;;;10.03;100.00
23363;BME280;11853;48.080;11.960;2024-03-02T10:48:58;93779.81;;;10.01;100.00
23363;BME280;11853;48.080;11.960;2024-03-02T10:51:28;93768.72;;;10.06;100.00
23363;BME280;11853;48.080;11.960;2024-03-02T10:54:00;93770.53;;;10.05;100.00
23363;BME280;11853;48.080;11.960;2024-03-02T10:56:38;93756.28;;;10.06;100.00
23363;BME280;11853;48.080;11.960;2024-03-02T11:01:55;93754.75;;;10.12;100.00
23363;BME280;11853;48.080;11.960;2024-03-02T11:04:21;93758.47;;;10.26;100.00
23363;BME280;11853;48.080;11.960;2024-03-02T11:06:50;93759.84;;;10.22;100.00
23363;BME280;11853;48.080;11.960;2024-03-02T11:09:20;93750.09;;;10.14;100.00
23363;BME280;11853;48.080;11.960;2024-03-02T11:11:52;93740.25;;;10.23;100.00
23363;BME280;11853;48.080;11.960;2024-03-02T11:14:24;93742.16;;;10.37;100.00
23363;BME280;11853;48.080;11.960;2024-03-02T11:16:51;93740.00;;;10.55;100.00
23363;BME280;11853;48.080;11.960;2024-03-02T11:19:18;93741.75;;;10.63;100.00
23363;BME280;11853;48.080;11.960;2024-03-02T11:21:44;93734.25;;;10.67;100.00
23363;BME280;11853;48.080;11.960;2024-03-02T11:26:59;93730.53;;;10.76;100.00
23363;BME280;11853;48.080;11.960;2024-03-02T11:32:05;93719.72;;;10.92;100.00
23363;BME280;11853;48.080;11.960;2024-03-02T11:34:34;93719.66;;;11.00;100.00
23363;BME280;11853;48.080;11.960;2024-03-02T11:37:04;93717.44;;;11.19;100.00
23363;BME280;11853;48.080;11.960;2024-03-02T11:39:30;93713.78;;;11.20;100.00
23363;BME280;11853;48.080;11.960;2024-03-02T11:41:57;93709.69;;;11.02;100.00
23363;BME280;11853;48.080;11.960;2024-03-02T11:44:25;93706.56;;;11.14;100.00
23363;BME280;11853;48.080;11.960;2024-03-02T11:47:07;93705.53;;;11.15;100.00
23363;BME280;11853;48.080;11.960;2024-03-02T11:52:15;93699.13;;;11.24;100.00
23363;BME280;11853;48.080;11.960;2024-03-02T11:54:44;93697.94;;;11.26;100.00
23363;BME280;11853;48.080;11.960;2024-03-02T11:57:21;93694.63;;;11.24;100.00
23363;BME280;11853;48.080;11.960;2024-03-02T11:59:51;93698.13;;;10.95;100.00
23363;BME280;11853;48.080;11.960;2024-03-02T12:02:21;93692.63;;;11.12;100.00
23363;BME280;11853;48.080;11.960;2024-03-02T12:04:48;93689.34;;;11.10;100.00
23363;BME280;11853;48.080;11.960;2024-03-02T12:07:22;93682.41;;;11.09;100.00
23363;BME280;11853;48.080;11.960;2024-03-02T12:10:09;93688.44;;;11.02;100.00
23363;BME280;11853;48.080;11.960;2024-03-02T12:12:34;93684.03;;;11.10;100.00
23363;BME280;11853;48.080;11.960;2024-03-02T12:15:00;93687.03;;;11.21;100.00
23363;BME280;11853;48.080;11.960;2024-03-02T12:17:26;93690.53;;;11.22;100.00
23363;BME280;11853;48.080;11.960;2024-03-02T12:19:52;93691.25;;;11.31;100.00
23363;BME280;11853;48.080;11.960;2024-03-02T12:22:18;93678.69;;;11.39;100.00
23363;BME280;11853;48.080;11.960;2024-03-02T12:24:44;93679.69;;;11.38;100.00
23363;BME280;11853;48.080;11.960;2024-03-02T12:27:15;93668.56;;;11.49;100.00
23363;BME280;11853;48.080;11.960;2024-03-02T12:29:41;93677.66;;;11.40;100.00
23363;BME280;11853;48.080;11.960;2024-03-02T12:32:08;93667.34;;;11.31;100.00
23363;BME280;11853;48.080;11.960;2024-03-02T12:34:34;93668.81;;;11.33;100.00
23363;BME280;11853;48.080;11.960;2024-03-02T12:36:59;93659.75;;;11.27;100.00
23363;BME280;11853;48.080;11.960;2024-03-02T12:39:25;93651.75;;;11.42;100.00
23363;BME280;11853;48.080;11.960;2024-03-02T12:41:52;93645.31;;;11.52;100.00
23363;BME280;11853;48.080;11.960;2024-03-02T12:44:19;93646.81;;;11.61;100.00
23363;BME280;11853;48.080;11.960;2024-03-02T12:46:46;93637.88;;;11.62;100.00
23363;BME280;11853;48.080;11.960;2024-03-02T12:49:14;93631.41;;;11.71;100.00
23363;BME280;11853;48.080;11.960;2024-03-02T12:51:42;93637.00;;;11.76;100.00
23363;BME280;11853;48.080;11.960;2024-03-02T12:54:09;93635.69;;;11.72;100.00
23363;BME280;11853;48.080;11.960;2024-03-02T12:56:38;93620.16;;;11.47;100.00
23363;BME280;11853;48.080;11.960;2024-03-02T12:59:04;93617.13;;;11.50;100.00
23363;BME280;11853;48.080;11.960;2024-03-02T13:01:31;93612.63;;;11.51;100.00
23363;BME280;11853;48.080;11.960;2024-03-02T13:03:57;93605.03;;;11.48;100.00